sensor_id;sensor_type;location;lat;lon;timestamp;P1;durP1;ratioP1;P2;durP2;ratioP2
19879;SDS011;10102;50.828;4.416;2023-06-26T00:00:28;7.50;;;4.43;;
19879;SDS011;10102;50.828;4.416;2023-06-26T00:02:53;11.60;;;5.57;;
19879;SDS011;10102;50.828;4.416;2023-06-26T00:05:19;9.38;;;5.60;;
19879;SDS011;10102;50.828;4.416;2023-06-26T00:07:45;7.50;;;5.10;;
19879;SDS011;10102;50.828;4.416;2023-06-26T00:10:10;8.93;;;5.00;;
19879;SDS011;10102;50.828;4.416;2023-06-26T00:12:36;11.07;;;5.32;;
19879;SDS011;10102;50.828;4.416;2023-06-26T00:15:02;8.45;;;4.95;;
19879;SDS011;10102;50.828;4.416;2023-06-26T00:17:28;7.15;;;4.78;;
19879;SDS011;10102;50.828;4.416;2023-06-26T00:19:53;5.95;;;4.60;;
19879;SDS011;10102;50.828;4.416;2023-06-26T00:22:20;7.47;;;4.53;;
19879;SDS011;10102;50.828;4.416;2023-06-26T00:24:46;12.63;;;4.32;;
19879;SDS011;10102;50.828;4.416;2023-06-26T00:27:12;6.05;;;3.88;;
19879;SDS011;10102;50.828;4.416;2023-06-26T00:29:38;7.05;;;4.15;;
19879;SDS011;10102;50.828;4.416;2023-06-26T00:32:04;7.60;;;3.55;;
19879;SDS011;10102;50.828;4.416;2023-06-26T00:34:29;5.45;;;3.50;;
19879;SDS011;10102;50.828;4.416;2023-06-26T00:36:55;6.25;;;3.30;;
19879;SDS011;10102;50.828;4.416;2023-06-26T00:39:21;5.78;;;3.70;;
19879;SDS011;10102;50.828;4.416;2023-06-26T00:41:46;4.70;;;3.72;;
19879;SDS011;10102;50.828;4.416;2023-06-26T00:44:12;5.38;;;3.20;;
19879;SDS011;10102;50.828;4.416;2023-06-26T00:46:39;6.63;;;3.38;;
19879;SDS011;10102;50.828;4.416;2023-06-26T00:49:04;5.72;;;3.83;;
19879;SDS011;10102;50.828;4.416;2023-06-26T00:51:30;6.40;;;3.60;;
19879;SDS011;10102;50.828;4.416;2023-06-26T00:53:56;8.52;;;3.83;;
19879;SDS011;10102;50.828;4.416;2023-06-26T00:56:22;6.93;;;3.90;;
19879;SDS011;10102;50.828;4.416;2023-06-26T00:58:48;10.57;;;3.63;;
19879;SDS011;10102;50.828;4.416;2023-06-26T01:01:14;6.32;;;3.83;;
19879;SDS011;10102;50.828;4.416;2023-06-26T01:03:43;7.78;;;4.25;;
19879;SDS011;10102;50.828;4.416;2023-06-26T01:06:11;8.95;;;3.80;;
19879;SDS011;10102;50.828;4.416;2023-06-26T01:08:39;11.88;;;3.90;;
19879;SDS011;10102;50.828;4.416;2023-06-26T01:11:06;7.13;;;3.20;;
19879;SDS011;10102;50.828;4.416;2023-06-26T01:13:32;5.72;;;3.05;;
19879;SDS011;10102;50.828;4.416;2023-06-26T01:15:59;6.00;;;3.40;;
19879;SDS011;10102;50.828;4.416;2023-06-26T01:18:26;6.47;;;3.08;;
19879;SDS011;10102;50.828;4.416;2023-06-26T01:20:52;6.15;;;2.95;;
19879;SDS011;10102;50.828;4.416;2023-06-26T01:23:54;7.70;;;3.05;;
19879;SDS011;10102;50.828;4.416;2023-06-26T01:26:29;6.22;;;3.33;;
19879;SDS011;10102;50.828;4.416;2023-06-26T01:29:00;9.20;;;3.60;;
19879;SDS011;10102;50.828;4.416;2023-06-26T01:31:27;7.68;;;3.30;;
19879;SDS011;10102;50.828;4.416;2023-06-26T01:33:55;8.23;;;4.32;;
19879;SDS011;10102;50.828;4.416;2023-06-26T01:36:24;8.23;;;4.07;;
19879;SDS011;10102;50.828;4.416;2023-06-26T01:38:50;8.82;;;3.17;;
19879;SDS011;10102;50.828;4.416;2023-06-26T01:41:16;8.02;;;3.50;;
19879;SDS011;10102;50.828;4.416;2023-06-26T01:43:50;7.05;;;3.53;;
19879;SDS011;10102;50.828;4.416;2023-06-26T01:52:14;7.68;;;3.63;;
19879;SDS011;10102;50.828;4.416;2023-06-26T01:54:54;6.05;;;3.38;;
19879;SDS011;10102;50.828;4.416;2023-06-26T01:57:24;5.55;;;2.88;;
19879;SDS011;10102;50.828;4.416;2023-06-26T01:59:53;5.47;;;3.00;;
19879;SDS011;10102;50.828;4.416;2023-06-26T02:02:22;7.47;;;3.50;;
19879;SDS011;10102;50.828;4.416;2023-06-26T02:04:49;7.93;;;3.63;;
19879;SDS011;10102;50.828;4.416;2023-06-26T02:07:15;7.68;;;3.35;;
19879;SDS011;10102;50.828;4.416;2023-06-26T02:09:41;7.00;;;3.47;;
19879;SDS011;10102;50.828;4.416;2023-06-26T02:12:07;6.60;;;3.25;;
19879;SDS011;10102;50.828;4.416;2023-06-26T02:14:33;6.25;;;3.42;;
19879;SDS011;10102;50.828;4.416;2023-06-26T02:16:58;6.88;;;3.28;;
19879;SDS011;10102;50.828;4.416;2023-06-26T02:19:25;10.35;;;3.45;;
19879;SDS011;10102;50.828;4.416;2023-06-26T02:21:53;8.95;;;3.40;;
19879;SDS011;10102;50.828;4.416;2023-06-26T02:24:19;12.32;;;3.67;;
19879;SDS011;10102;50.828;4.416;2023-06-26T02:26:45;9.48;;;3.92;;
19879;SDS011;10102;50.828;4.416;2023-06-26T02:29:11;9.43;;;3.97;;
19879;SDS011;10102;50.828;4.416;2023-06-26T02:31:37;7.95;;;4.15;;
19879;SDS011;10102;50.828;4.416;2023-06-26T02:34:03;9.13;;;3.53;;
19879;SDS011;10102;50.828;4.416;2023-06-26T02:36:29;9.80;;;4.63;;
19879;SDS011;10102;50.828;4.416;2023-06-26T02:38:54;8.05;;;3.58;;
19879;SDS011;10102;50.828;4.416;2023-06-26T02:41:20;7.22;;;3.60;;
19879;SDS011;10102;50.828;4.416;2023-06-26T02:43:46;9.50;;;4.05;;
19879;SDS011;10102;50.828;4.416;2023-06-26T02:46:12;9.70;;;3.85;;
19879;SDS011;10102;50.828;4.416;2023-06-26T02:48:37;11.25;;;4.00;;
19879;SDS011;10102;50.828;4.416;2023-06-26T02:51:03;8.00;;;3.90;;
19879;SDS011;10102;50.828;4.416;2023-06-26T02:53:29;7.85;;;3.50;;
19879;SDS011;10102;50.828;4.416;2023-06-26T02:55:56;8.90;;;3.90;;
19879;SDS011;10102;50.828;4.416;2023-06-26T02:58:22;8.95;;;3.65;;
19879;SDS011;10102;50.828;4.416;2023-06-26T03:00:47;9.15;;;4.20;;
19879;SDS011;10102;50.828;4.416;2023-06-26T03:03:13;8.27;;;4.10;;
19879;SDS011;10102;50.828;4.416;2023-06-26T03:05:39;13.80;;;4.18;;
19879;SDS011;10102;50.828;4.416;2023-06-26T03:08:05;10.18;;;3.65;;
19879;SDS011;10102;50.828;4.416;2023-06-26T03:10:31;10.88;;;4.07;;
19879;SDS011;10102;50.828;4.416;2023-06-26T03:12:56;9.90;;;4.22;;
19879;SDS011;10102;50.828;4.416;2023-06-26T03:15:22;9.65;;;4.00;;
19879;SDS011;10102;50.828;4.416;2023-06-26T03:17:47;11.13;;;3.75;;
19879;SDS011;10102;50.828;4.416;2023-06-26T03:20:13;14.27;;;4.18;;
19879;SDS011;10102;50.828;4.416;2023-06-26T03:22:40;9.57;;;4.07;;
19879;SDS011;10102;50.828;4.416;2023-06-26T03:25:06;7.80;;;4.28;;
19879;SDS011;10102;50.828;4.416;2023-06-26T03:27:32;11.13;;;4.18;;
19879;SDS011;10102;50.828;4.416;2023-06-26T03:29:57;10.32;;;4.10;;
19879;SDS011;10102;50.828;4.416;2023-06-26T03:32:23;16.90;;;3.83;;
19879;SDS011;10102;50.828;4.416;2023-06-26T03:34:49;13.85;;;4.25;;
19879;SDS011;10102;50.828;4.416;2023-06-26T03:37:15;14.63;;;5.53;;
19879;SDS011;10102;50.828;4.416;2023-06-26T03:39:41;8.35;;;3.97;;
19879;SDS011;10102;50.828;4.416;2023-06-26T03:42:07;9.02;;;3.90;;
19879;SDS011;10102;50.828;4.416;2023-06-26T03:44:32;12.02;;;4.63;;
19879;SDS011;10102;50.828;4.416;2023-06-26T03:46:58;14.02;;;4.80;;
19879;SDS011;10102;50.828;4.416;2023-06-26T03:49:24;14.07;;;4.22;;
19879;SDS011;10102;50.828;4.416;2023-06-26T03:51:49;10.30;;;4.28;;
19879;SDS011;10102;50.828;4.416;2023-06-26T03:54:15;12.68;;;4.63;;
19879;SDS011;10102;50.828;4.416;2023-06-26T03:56:41;13.43;;;4.65;;
19879;SDS011;10102;50.828;4.416;2023-06-26T03:59:07;11.30;;;4.13;;
19879;SDS011;10102;50.828;4.416;2023-06-26T04:01:33;17.92;;;5.32;;
19879;SDS011;10102;50.828;4.416;2023-06-26T04:04:01;14.60;;;3.90;;
19879;SDS011;10102;50.828;4.416;2023-06-26T04:06:27;13.23;;;4.28;;
19879;SDS011;10102;50.828;4.416;2023-06-26T04:08:53;14.23;;;4.55;;
19879;SDS011;10102;50.828;4.416;2023-06-26T04:11:19;14.27;;;4.43;;
19879;SDS011;10102;50.828;4.416;2023-06-26T04:13:44;16.75;;;4.07;;
19879;SDS011;10102;50.828;4.416;2023-06-26T04:16:10;14.68;;;4.00;;
19879;SDS011;10102;50.828;4.416;2023-06-26T04:18:36;11.85;;;4.47;;
19879;SDS011;10102;50.828;4.416;2023-06-26T04:23:36;18.02;;;4.35;;
19879;SDS011;10102;50.828;4.416;2023-06-26T04:26:02;14.65;;;4.00;;
19879;SDS011;10102;50.828;4.416;2023-06-26T04:28:29;20.67;;;4.47;;
19879;SDS011;10102;50.828;4.416;2023-06-26T04:30:55;9.30;;;3.80;;
19879;SDS011;10102;50.828;4.416;2023-06-26T04:33:21;17.88;;;6.43;;
19879;SDS011;10102;50.828;4.416;2023-06-26T04:35:47;14.98;;;3.78;;
19879;SDS011;10102;50.828;4.416;2023-06-26T04:38:14;13.55;;;3.78;;
19879;SDS011;10102;50.828;4.416;2023-06-26T04:40:40;12.45;;;4.15;;
19879;SDS011;10102;50.828;4.416;2023-06-26T04:43:06;20.63;;;4.35;;
19879;SDS011;10102;50.828;4.416;2023-06-26T04:45:32;12.80;;;3.83;;
19879;SDS011;10102;50.828;4.416;2023-06-26T04:47:57;11.93;;;3.97;;
19879;SDS011;10102;50.828;4.416;2023-06-26T04:50:25;15.23;;;4.18;;
19879;SDS011;10102;50.828;4.416;2023-06-26T04:52:56;14.93;;;3.67;;
19879;SDS011;10102;50.828;4.416;2023-06-26T04:55:25;8.85;;;3.30;;
19879;SDS011;10102;50.828;4.416;2023-06-26T04:57:52;13.75;;;3.63;;
19879;SDS011;10102;50.828;4.416;2023-06-26T05:00:18;15.20;;;3.92;;
19879;SDS011;10102;50.828;4.416;2023-06-26T05:02:44;19.92;;;4.00;;
19879;SDS011;10102;50.828;4.416;2023-06-26T05:05:10;13.65;;;5.20;;
19879;SDS011;10102;50.828;4.416;2023-06-26T05:07:38;11.95;;;4.07;;
19879;SDS011;10102;50.828;4.416;2023-06-26T05:10:03;11.80;;;3.92;;
19879;SDS011;10102;50.828;4.416;2023-06-26T05:12:29;14.50;;;3.92;;
19879;SDS011;10102;50.828;4.416;2023-06-26T05:14:56;13.52;;;3.13;;
19879;SDS011;10102;50.828;4.416;2023-06-26T05:17:21;17.27;;;3.83;;
19879;SDS011;10102;50.828;4.416;2023-06-26T05:19:47;16.38;;;3.95;;
19879;SDS011;10102;50.828;4.416;2023-06-26T05:22:13;17.52;;;3.78;;
19879;SDS011;10102;50.828;4.416;2023-06-26T05:24:39;18.55;;;3.70;;
19879;SDS011;10102;50.828;4.416;2023-06-26T05:27:05;12.57;;;3.80;;
19879;SDS011;10102;50.828;4.416;2023-06-26T05:29:32;10.80;;;3.13;;
19879;SDS011;10102;50.828;4.416;2023-06-26T05:31:58;10.90;;;3.38;;
19879;SDS011;10102;50.828;4.416;2023-06-26T05:34:24;16.20;;;3.60;;
19879;SDS011;10102;50.828;4.416;2023-06-26T05:36:55;14.25;;;3.72;;
19879;SDS011;10102;50.828;4.416;2023-06-26T05:39:24;12.07;;;3.35;;
19879;SDS011;10102;50.828;4.416;2023-06-26T05:41:50;17.67;;;3.30;;
19879;SDS011;10102;50.828;4.416;2023-06-26T05:44:16;14.15;;;3.33;;
19879;SDS011;10102;50.828;4.416;2023-06-26T05:46:42;13.25;;;3.63;;
19879;SDS011;10102;50.828;4.416;2023-06-26T05:49:08;10.55;;;3.97;;
19879;SDS011;10102;50.828;4.416;2023-06-26T05:51:34;14.40;;;3.35;;
19879;SDS011;10102;50.828;4.416;2023-06-26T05:54:00;10.93;;;3.75;;
19879;SDS011;10102;50.828;4.416;2023-06-26T05:56:26;11.85;;;3.30;;
19879;SDS011;10102;50.828;4.416;2023-06-26T05:58:53;15.15;;;3.45;;
19879;SDS011;10102;50.828;4.416;2023-06-26T06:01:19;11.43;;;3.28;;
19879;SDS011;10102;50.828;4.416;2023-06-26T06:03:45;15.43;;;3.22;;
19879;SDS011;10102;50.828;4.416;2023-06-26T06:06:11;8.95;;;2.75;;
19879;SDS011;10102;50.828;4.416;2023-06-26T06:08:37;15.38;;;3.47;;
19879;SDS011;10102;50.828;4.416;2023-06-26T06:11:03;9.85;;;2.63;;
19879;SDS011;10102;50.828;4.416;2023-06-26T06:13:28;11.95;;;3.10;;
19879;SDS011;10102;50.828;4.416;2023-06-26T06:15:54;12.55;;;2.72;;
19879;SDS011;10102;50.828;4.416;2023-06-26T06:18:21;13.13;;;3.00;;
19879;SDS011;10102;50.828;4.416;2023-06-26T06:20:47;6.57;;;2.67;;
19879;SDS011;10102;50.828;4.416;2023-06-26T06:23:13;10.48;;;2.78;;
19879;SDS011;10102;50.828;4.416;2023-06-26T06:25:39;10.75;;;2.40;;
19879;SDS011;10102;50.828;4.416;2023-06-26T06:28:05;9.63;;;2.83;;
19879;SDS011;10102;50.828;4.416;2023-06-26T06:30:31;9.05;;;2.40;;
19879;SDS011;10102;50.828;4.416;2023-06-26T06:32:57;10.43;;;2.45;;
19879;SDS011;10102;50.828;4.416;2023-06-26T06:35:23;14.05;;;3.00;;
19879;SDS011;10102;50.828;4.416;2023-06-26T06:37:49;12.73;;;2.63;;
19879;SDS011;10102;50.828;4.416;2023-06-26T06:40:14;9.43;;;3.00;;
19879;SDS011;10102;50.828;4.416;2023-06-26T06:42:41;12.02;;;2.40;;
19879;SDS011;10102;50.828;4.416;2023-06-26T06:45:07;12.00;;;2.30;;
19879;SDS011;10102;50.828;4.416;2023-06-26T06:47:33;10.60;;;2.25;;
19879;SDS011;10102;50.828;4.416;2023-06-26T06:49:59;8.20;;;2.40;;
19879;SDS011;10102;50.828;4.416;2023-06-26T06:52:34;6.65;;;2.50;;
19879;SDS011;10102;50.828;4.416;2023-06-26T06:55:03;13.70;;;2.30;;
19879;SDS011;10102;50.828;4.416;2023-06-26T06:57:34;12.80;;;2.15;;
19879;SDS011;10102;50.828;4.416;2023-06-26T07:00:03;9.10;;;2.13;;
19879;SDS011;10102;50.828;4.416;2023-06-26T07:02:39;11.20;;;1.63;;
19879;SDS011;10102;50.828;4.416;2023-06-26T07:05:07;5.72;;;2.05;;
19879;SDS011;10102;50.828;4.416;2023-06-26T07:07:34;6.75;;;1.70;;
19879;SDS011;10102;50.828;4.416;2023-06-26T07:10:01;6.85;;;1.98;;
19879;SDS011;10102;50.828;4.416;2023-06-26T07:12:32;8.95;;;1.90;;
19879;SDS011;10102;50.828;4.416;2023-06-26T07:14:59;5.22;;;1.75;;
19879;SDS011;10102;50.828;4.416;2023-06-26T07:17:26;8.57;;;1.77;;
19879;SDS011;10102;50.828;4.416;2023-06-26T07:19:51;8.65;;;1.40;;
19879;SDS011;10102;50.828;4.416;2023-06-26T07:22:17;5.72;;;1.90;;
19879;SDS011;10102;50.828;4.416;2023-06-26T07:24:45;9.00;;;2.22;;
19879;SDS011;10102;50.828;4.416;2023-06-26T07:27:12;8.68;;;2.42;;
19879;SDS011;10102;50.828;4.416;2023-06-26T07:29:37;6.63;;;1.70;;
19879;SDS011;10102;50.828;4.416;2023-06-26T07:32:03;8.45;;;2.00;;
19879;SDS011;10102;50.828;4.416;2023-06-26T07:34:29;3.55;;;1.40;;
19879;SDS011;10102;50.828;4.416;2023-06-26T07:36:54;5.95;;;1.90;;
19879;SDS011;10102;50.828;4.416;2023-06-26T07:39:20;9.55;;;2.25;;
19879;SDS011;10102;50.828;4.416;2023-06-26T07:41:46;8.13;;;1.98;;
19879;SDS011;10102;50.828;4.416;2023-06-26T07:44:12;8.70;;;1.98;;
19879;SDS011;10102;50.828;4.416;2023-06-26T07:46:37;4.88;;;1.80;;
19879;SDS011;10102;50.828;4.416;2023-06-26T07:49:04;5.72;;;1.77;;
19879;SDS011;10102;50.828;4.416;2023-06-26T07:51:29;9.00;;;2.20;;
19879;SDS011;10102;50.828;4.416;2023-06-26T07:53:55;7.45;;;1.63;;
19879;SDS011;10102;50.828;4.416;2023-06-26T07:56:21;7.13;;;1.90;;
19879;SDS011;10102;50.828;4.416;2023-06-26T07:58:46;9.02;;;2.28;;
19879;SDS011;10102;50.828;4.416;2023-06-26T08:01:12;9.52;;;2.20;;
19879;SDS011;10102;50.828;4.416;2023-06-26T08:03:37;7.10;;;1.67;;
19879;SDS011;10102;50.828;4.416;2023-06-26T08:06:03;5.95;;;1.67;;
19879;SDS011;10102;50.828;4.416;2023-06-26T08:08:29;4.93;;;1.70;;
19879;SDS011;10102;50.828;4.416;2023-06-26T08:10:55;9.13;;;1.60;;
19879;SDS011;10102;50.828;4.416;2023-06-26T08:13:20;5.57;;;1.55;;
19879;SDS011;10102;50.828;4.416;2023-06-26T08:15:46;6.70;;;1.60;;
19879;SDS011;10102;50.828;4.416;2023-06-26T08:18:12;6.63;;;1.63;;
19879;SDS011;10102;50.828;4.416;2023-06-26T08:20:37;4.90;;;1.90;;
19879;SDS011;10102;50.828;4.416;2023-06-26T08:23:03;7.32;;;1.70;;
19879;SDS011;10102;50.828;4.416;2023-06-26T08:25:29;4.20;;;1.58;;
19879;SDS011;10102;50.828;4.416;2023-06-26T08:27:55;6.68;;;1.60;;
19879;SDS011;10102;50.828;4.416;2023-06-26T08:30:21;5.30;;;1.48;;
19879;SDS011;10102;50.828;4.416;2023-06-26T08:32:47;6.10;;;1.92;;
19879;SDS011;10102;50.828;4.416;2023-06-26T08:35:13;7.50;;;1.65;;
19879;SDS011;10102;50.828;4.416;2023-06-26T08:37:38;5.75;;;1.90;;
19879;SDS011;10102;50.828;4.416;2023-06-26T08:40:04;7.50;;;1.50;;
19879;SDS011;10102;50.828;4.416;2023-06-26T08:42:31;5.50;;;1.52;;
19879;SDS011;10102;50.828;4.416;2023-06-26T08:44:56;6.93;;;1.30;;
19879;SDS011;10102;50.828;4.416;2023-06-26T08:47:23;6.53;;;1.60;;
19879;SDS011;10102;50.828;4.416;2023-06-26T08:55:24;5.43;;;1.38;;
19879;SDS011;10102;50.828;4.416;2023-06-26T08:57:52;8.02;;;2.03;;
19879;SDS011;10102;50.828;4.416;2023-06-26T09:00:21;8.60;;;1.42;;
19879;SDS011;10102;50.828;4.416;2023-06-26T09:02:47;3.60;;;1.40;;
19879;SDS011;10102;50.828;4.416;2023-06-26T09:05:13;4.80;;;1.20;;
19879;SDS011;10102;50.828;4.416;2023-06-26T09:07:39;4.15;;;1.50;;
19879;SDS011;10102;50.828;4.416;2023-06-26T09:10:04;4.22;;;1.48;;
19879;SDS011;10102;50.828;4.416;2023-06-26T09:12:31;5.13;;;1.67;;
19879;SDS011;10102;50.828;4.416;2023-06-26T09:14:57;5.60;;;1.58;;
19879;SDS011;10102;50.828;4.416;2023-06-26T09:17:29;6.65;;;1.52;;
19879;SDS011;10102;50.828;4.416;2023-06-26T09:19:56;5.85;;;1.65;;
19879;SDS011;10102;50.828;4.416;2023-06-26T09:22:22;2.58;;;1.15;;
19879;SDS011;10102;50.828;4.416;2023-06-26T09:24:48;3.88;;;1.52;;
19879;SDS011;10102;50.828;4.416;2023-06-26T09:27:16;5.80;;;1.77;;
19879;SDS011;10102;50.828;4.416;2023-06-26T09:29:45;4.07;;;1.50;;
19879;SDS011;10102;50.828;4.416;2023-06-26T09:32:12;4.38;;;1.48;;
19879;SDS011;10102;50.828;4.416;2023-06-26T09:34:40;5.70;;;1.70;;
19879;SDS011;10102;50.828;4.416;2023-06-26T09:37:07;7.07;;;1.45;;
19879;SDS011;10102;50.828;4.416;2023-06-26T09:39:33;8.32;;;1.35;;
19879;SDS011;10102;50.828;4.416;2023-06-26T09:41:59;6.20;;;1.48;;
19879;SDS011;10102;50.828;4.416;2023-06-26T09:44:26;5.60;;;1.70;;
19879;SDS011;10102;50.828;4.416;2023-06-26T09:46:52;5.88;;;1.52;;
19879;SDS011;10102;50.828;4.416;2023-06-26T09:49:20;7.90;;;1.58;;
19879;SDS011;10102;50.828;4.416;2023-06-26T09:51:46;4.80;;;1.40;;
19879;SDS011;10102;50.828;4.416;2023-06-26T09:54:11;3.20;;;1.38;;
19879;SDS011;10102;50.828;4.416;2023-06-26T09:56:37;6.82;;;1.83;;
19879;SDS011;10102;50.828;4.416;2023-06-26T09:59:03;6.45;;;1.40;;
19879;SDS011;10102;50.828;4.416;2023-06-26T10:01:30;5.60;;;1.25;;
19879;SDS011;10102;50.828;4.416;2023-06-26T10:03:57;4.78;;;1.35;;
19879;SDS011;10102;50.828;4.416;2023-06-26T10:06:45;4.65;;;1.35;;
19879;SDS011;10102;50.828;4.416;2023-06-26T10:09:12;6.72;;;1.75;;
19879;SDS011;10102;50.828;4.416;2023-06-26T10:12:01;4.63;;;1.50;;
19879;SDS011;10102;50.828;4.416;2023-06-26T10:14:35;4.78;;;1.90;;
19879;SDS011;10102;50.828;4.416;2023-06-26T10:17:07;7.15;;;1.23;;
19879;SDS011;10102;50.828;4.416;2023-06-26T10:19:35;5.22;;;1.40;;
19879;SDS011;10102;50.828;4.416;2023-06-26T10:22:06;5.95;;;1.88;;
19879;SDS011;10102;50.828;4.416;2023-06-26T10:24:33;8.18;;;2.00;;
19879;SDS011;10102;50.828;4.416;2023-06-26T10:27:07;10.50;;;1.58;;
19879;SDS011;10102;50.828;4.416;2023-06-26T10:29:41;7.50;;;1.90;;
19879;SDS011;10102;50.828;4.416;2023-06-26T10:32:10;6.60;;;1.70;;
19879;SDS011;10102;50.828;4.416;2023-06-26T10:34:37;5.35;;;1.70;;
19879;SDS011;10102;50.828;4.416;2023-06-26T10:37:03;5.68;;;1.58;;
19879;SDS011;10102;50.828;4.416;2023-06-26T10:40:12;3.47;;;1.42;;
19879;SDS011;10102;50.828;4.416;2023-06-26T10:42:42;4.32;;;1.48;;
19879;SDS011;10102;50.828;4.416;2023-06-26T10:45:16;4.28;;;1.45;;
19879;SDS011;10102;50.828;4.416;2023-06-26T10:47:46;6.80;;;1.65;;
19879;SDS011;10102;50.828;4.416;2023-06-26T10:52:41;5.68;;;1.70;;
19879;SDS011;10102;50.828;4.416;2023-06-26T10:55:10;3.80;;;1.65;;
19879;SDS011;10102;50.828;4.416;2023-06-26T10:57:35;6.70;;;1.70;;
19879;SDS011;10102;50.828;4.416;2023-06-26T11:00:09;3.90;;;1.75;;
19879;SDS011;10102;50.828;4.416;2023-06-26T11:02:51;7.65;;;1.70;;
19879;SDS011;10102;50.828;4.416;2023-06-26T11:05:23;8.40;;;1.75;;
19879;SDS011;10102;50.828;4.416;2023-06-26T11:08:24;7.65;;;2.35;;
19879;SDS011;10102;50.828;4.416;2023-06-26T11:10:49;6.00;;;1.48;;
19879;SDS011;10102;50.828;4.416;2023-06-26T11:13:17;8.15;;;1.90;;
19879;SDS011;10102;50.828;4.416;2023-06-26T11:15:44;3.20;;;1.70;;
19879;SDS011;10102;50.828;4.416;2023-06-26T11:18:11;7.85;;;2.17;;
19879;SDS011;10102;50.828;4.416;2023-06-26T11:20:37;4.72;;;2.58;;
19879;SDS011;10102;50.828;4.416;2023-06-26T11:23:07;7.18;;;3.15;;
19879;SDS011;10102;50.828;4.416;2023-06-26T11:25:37;9.93;;;2.05;;
19879;SDS011;10102;50.828;4.416;2023-06-26T11:28:03;4.78;;;2.13;;
19879;SDS011;10102;50.828;4.416;2023-06-26T11:30:30;3.97;;;2.17;;
19879;SDS011;10102;50.828;4.416;2023-06-26T11:33:06;7.43;;;1.88;;
19879;SDS011;10102;50.828;4.416;2023-06-26T11:35:32;3.55;;;1.70;;
19879;SDS011;10102;50.828;4.416;2023-06-26T11:37:59;8.43;;;2.00;;
19879;SDS011;10102;50.828;4.416;2023-06-26T11:40:29;4.78;;;2.00;;
19879;SDS011;10102;50.828;4.416;2023-06-26T11:42:59;5.18;;;2.20;;
19879;SDS011;10102;50.828;4.416;2023-06-26T11:45:28;8.25;;;2.38;;
19879;SDS011;10102;50.828;4.416;2023-06-26T11:47:58;15.52;;;6.97;;
19879;SDS011;10102;50.828;4.416;2023-06-26T11:50:25;8.48;;;1.90;;
19879;SDS011;10102;50.828;4.416;2023-06-26T11:52:57;8.13;;;2.92;;
19879;SDS011;10102;50.828;4.416;2023-06-26T11:55:24;7.70;;;1.80;;
19879;SDS011;10102;50.828;4.416;2023-06-26T11:57:52;8.10;;;5.15;;
19879;SDS011;10102;50.828;4.416;2023-06-26T12:00:19;7.00;;;1.90;;
19879;SDS011;10102;50.828;4.416;2023-06-26T12:02:46;7.85;;;3.95;;
19879;SDS011;10102;50.828;4.416;2023-06-26T12:05:12;14.65;;;9.30;;
19879;SDS011;10102;50.828;4.416;2023-06-26T12:07:43;5.45;;;2.03;;
19879;SDS011;10102;50.828;4.416;2023-06-26T12:10:11;8.80;;;3.40;;
19879;SDS011;10102;50.828;4.416;2023-06-26T12:12:38;12.68;;;3.42;;
19879;SDS011;10102;50.828;4.416;2023-06-26T12:15:05;5.35;;;1.38;;
19879;SDS011;10102;50.828;4.416;2023-06-26T12:17:32;5.10;;;1.48;;
19879;SDS011;10102;50.828;4.416;2023-06-26T12:19:58;3.63;;;1.70;;
19879;SDS011;10102;50.828;4.416;2023-06-26T12:22:24;7.00;;;1.65;;
19879;SDS011;10102;50.828;4.416;2023-06-26T12:24:58;6.35;;;1.33;;
19879;SDS011;10102;50.828;4.416;2023-06-26T12:27:24;7.72;;;1.58;;
19879;SDS011;10102;50.828;4.416;2023-06-26T12:29:52;6.35;;;1.30;;
19879;SDS011;10102;50.828;4.416;2023-06-26T12:32:18;9.20;;;1.50;;
19879;SDS011;10102;50.828;4.416;2023-06-26T12:34:47;4.32;;;1.40;;
19879;SDS011;10102;50.828;4.416;2023-06-26T12:37:16;5.97;;;1.35;;
19879;SDS011;10102;50.828;4.416;2023-06-26T12:39:52;4.85;;;1.70;;
19879;SDS011;10102;50.828;4.416;2023-06-26T12:42:19;3.95;;;1.42;;
19879;SDS011;10102;50.828;4.416;2023-06-26T12:44:46;6.65;;;1.42;;
19879;SDS011;10102;50.828;4.416;2023-06-26T12:47:13;5.45;;;1.80;;
19879;SDS011;10102;50.828;4.416;2023-06-26T12:49:41;7.03;;;1.95;;
19879;SDS011;10102;50.828;4.416;2023-06-26T12:52:08;5.38;;;1.25;;
19879;SDS011;10102;50.828;4.416;2023-06-26T12:54:35;3.13;;;1.50;;
19879;SDS011;10102;50.828;4.416;2023-06-26T12:57:07;6.53;;;1.42;;
19879;SDS011;10102;50.828;4.416;2023-06-26T12:59:34;4.25;;;1.60;;
19879;SDS011;10102;50.828;4.416;2023-06-26T13:02:01;4.07;;;1.40;;
19879;SDS011;10102;50.828;4.416;2023-06-26T13:04:27;9.35;;;1.38;;
19879;SDS011;10102;50.828;4.416;2023-06-26T13:06:53;3.97;;;1.50;;
19879;SDS011;10102;50.828;4.416;2023-06-26T13:09:22;6.03;;;1.45;;
19879;SDS011;10102;50.828;4.416;2023-06-26T13:11:51;2.72;;;1.30;;
19879;SDS011;10102;50.828;4.416;2023-06-26T13:14:17;5.93;;;1.80;;
19879;SDS011;10102;50.828;4.416;2023-06-26T13:16:43;2.83;;;1.27;;
19879;SDS011;10102;50.828;4.416;2023-06-26T13:19:09;3.25;;;1.50;;
19879;SDS011;10102;50.828;4.416;2023-06-26T13:21:34;4.95;;;1.80;;
19879;SDS011;10102;50.828;4.416;2023-06-26T13:24:00;4.60;;;1.63;;
19879;SDS011;10102;50.828;4.416;2023-06-26T13:26:28;8.38;;;1.77;;
19879;SDS011;10102;50.828;4.416;2023-06-26T13:28:54;7.57;;;1.48;;
19879;SDS011;10102;50.828;4.416;2023-06-26T13:31:20;4.57;;;1.63;;
19879;SDS011;10102;50.828;4.416;2023-06-26T13:33:46;7.13;;;1.65;;
19879;SDS011;10102;50.828;4.416;2023-06-26T13:36:17;5.53;;;1.70;;
19879;SDS011;10102;50.828;4.416;2023-06-26T13:38:43;2.92;;;1.60;;
19879;SDS011;10102;50.828;4.416;2023-06-26T13:41:09;6.55;;;1.35;;
19879;SDS011;10102;50.828;4.416;2023-06-26T13:43:34;2.90;;;1.40;;
19879;SDS011;10102;50.828;4.416;2023-06-26T13:46:00;3.88;;;1.10;;
19879;SDS011;10102;50.828;4.416;2023-06-26T13:48:26;4.55;;;1.88;;
19879;SDS011;10102;50.828;4.416;2023-06-26T13:50:52;4.95;;;1.73;;
19879;SDS011;10102;50.828;4.416;2023-06-26T13:53:18;11.15;;;1.73;;
19879;SDS011;10102;50.828;4.416;2023-06-26T13:55:44;6.50;;;1.55;;
19879;SDS011;10102;50.828;4.416;2023-06-26T13:58:10;5.00;;;1.52;;
19879;SDS011;10102;50.828;4.416;2023-06-26T14:00:36;6.15;;;1.60;;
19879;SDS011;10102;50.828;4.416;2023-06-26T14:03:06;4.50;;;1.58;;
19879;SDS011;10102;50.828;4.416;2023-06-26T14:05:36;9.07;;;1.48;;
19879;SDS011;10102;50.828;4.416;2023-06-26T14:08:05;5.18;;;1.55;;
19879;SDS011;10102;50.828;4.416;2023-06-26T14:10:32;7.35;;;1.75;;
19879;SDS011;10102;50.828;4.416;2023-06-26T14:12:58;5.18;;;1.50;;
19879;SDS011;10102;50.828;4.416;2023-06-26T14:15:28;4.20;;;1.17;;
19879;SDS011;10102;50.828;4.416;2023-06-26T14:17:53;4.75;;;1.50;;
19879;SDS011;10102;50.828;4.416;2023-06-26T14:20:20;5.30;;;1.23;;
19879;SDS011;10102;50.828;4.416;2023-06-26T14:22:47;3.78;;;1.42;;
19879;SDS011;10102;50.828;4.416;2023-06-26T14:25:14;8.27;;;1.70;;
19879;SDS011;10102;50.828;4.416;2023-06-26T14:27:40;3.00;;;1.40;;
19879;SDS011;10102;50.828;4.416;2023-06-26T14:30:06;6.82;;;1.50;;
19879;SDS011;10102;50.828;4.416;2023-06-26T14:32:35;4.40;;;1.27;;
19879;SDS011;10102;50.828;4.416;2023-06-26T14:35:01;4.03;;;1.00;;
19879;SDS011;10102;50.828;4.416;2023-06-26T14:37:28;5.90;;;1.10;;
19879;SDS011;10102;50.828;4.416;2023-06-26T14:39:55;7.75;;;1.60;;
19879;SDS011;10102;50.828;4.416;2023-06-26T14:42:20;6.13;;;1.50;;
19879;SDS011;10102;50.828;4.416;2023-06-26T14:44:46;8.40;;;1.75;;
19879;SDS011;10102;50.828;4.416;2023-06-26T14:47:18;6.50;;;1.65;;
19879;SDS011;10102;50.828;4.416;2023-06-26T14:49:44;3.10;;;1.45;;
19879;SDS011;10102;50.828;4.416;2023-06-26T14:52:10;5.75;;;1.55;;
19879;SDS011;10102;50.828;4.416;2023-06-26T14:54:36;4.03;;;1.70;;
19879;SDS011;10102;50.828;4.416;2023-06-26T14:57:02;7.18;;;1.75;;
19879;SDS011;10102;50.828;4.416;2023-06-26T14:59:29;6.50;;;1.35;;